Time;durP1;ratioP1;P1;durP2;ratioP2;P2;SDS_P1;SDS_P2;PMS_P1;PMS_P2;Temp;Humidity;BMP_temperature;BMP_pressure;BME280_temperature;BME280_humidity;BME280_pressure;Samples;Min_cycle;Max_cycle;Signal;HPM_P1;HPM_P2
2022/03/24 00:00:23;;;;;;;;;64.25;51.50;;;;;9.95;53.08;102188.50;5008627;28;45262;-82
2022/03/24 00:02:49;;;;;;;;;61.25;50.50;;;;;9.98;52.52;102185.16;5006662;28;45544;-81
2022/03/24 00:05:15;;;;;;;;;66.25;53.50;;;;;10.22;53.09;102239.16;5008457;28;45655;-82
2022/03/24 00:07:41;;;;;;;;;59.75;49.25;;;;;10.21;53.21;102228.56;4990117;28;45081;-82
2022/03/24 00:10:07;;;;;;;;;64.50;51.75;;;;;10.04;53.08;102196.00;5007520;28;45511;-82
2022/03/24 00:12:34;;;;;;;;;62.50;51.25;;;;;10.24;53.38;102245.44;5008010;28;45197;-81
2022/03/24 00:15:00;;;;;;;;;67.75;52.25;;;;;9.99;53.60;102208.88;5007953;28;45772;-82
2022/03/24 00:17:26;;;;;;;;;62.25;50.75;;;;;10.02;53.51;102218.66;5007919;28;45106;-82
2022/03/24 00:19:51;;;;;;;;;59.25;49.50;;;;;9.95;53.46;102203.34;4989108;28;46702;-81
2022/03/24 00:22:16;;;;;;;;;62.67;50.67;;;;;9.88;53.54;102196.81;5008442;28;45143;-82
2022/03/24 00:24:42;;;;;;;;;62.75;49.50;;;;;9.94;53.62;102209.41;5007022;28;45342;-82
2022/03/24 00:27:08;;;;;;;;;57.75;48.00;;;;;9.99;53.22;102214.13;5009980;28;46406;-82
2022/03/24 00:29:33;;;;;;;;;59.50;45.75;;;;;10.02;53.40;102222.19;4993681;28;45313;-82
2022/03/24 00:31:58;;;;;;;;;62.00;50.00;;;;;9.98;53.37;102208.78;5011815;28;45247;-82
2022/03/24 00:34:24;;;;;;;;;58.33;47.00;;;;;9.85;53.71;102190.47;5011845;28;45261;-81
2022/03/24 00:36:49;;;;;;;;;61.67;48.00;;;;;10.01;53.63;102228.28;5011587;28;45129;-82
2022/03/24 00:39:14;;;;;;;;;59.75;49.75;;;;;9.85;53.28;102199.25;5012082;28;45046;-82
2022/03/24 00:41:40;;;;;;;;;63.00;48.50;;;;;9.93;53.59;102205.88;4992505;28;45797;-83
2022/03/24 00:44:07;;;;;;;;;54.50;45.50;;;;;9.96;53.51;102216.59;5011573;28;45683;-82
2022/03/24 00:46:33;;;;;;;;;54.00;45.25;;;;;9.77;53.46;102195.28;5011700;28;45274;-82
2022/03/24 00:48:58;;;;;;;;;56.75;45.75;;;;;9.66;53.88;102171.00;5011134;28;45116;-81
2022/03/24 00:51:24;;;;;;;;;61.25;46.00;;;;;9.63;53.93;102167.25;5011368;28;44935;-81
2022/03/24 00:53:49;;;;;;;;;56.75;47.50;;;;;9.80;53.52;102198.06;5011037;28;45544;-82
2022/03/24 00:56:15;;;;;;;;;63.00;46.50;;;;;9.59;53.41;102176.66;5010970;28;45107;-82
2022/03/24 00:58:41;;;;;;;;;58.50;45.50;;;;;9.64;53.67;102184.81;4992801;28;45157;-82
2022/03/24 01:01:11;;;;;;;;;58.00;48.00;;;;;9.50;53.51;102171.75;5011837;28;45278;-82
2022/03/24 01:03:36;;;;;;;;;58.50;46.75;;;;;9.44;53.38;102160.88;4989545;28;46355;-82
2022/03/24 01:06:03;;;;;;;;;55.50;43.75;;;;;9.72;53.58;102207.22;4997616;28;45104;-82
2022/03/24 01:08:29;;;;;;;;;57.00;46.00;;;;;9.69;53.36;102202.66;5011541;28;44968;-82
2022/03/24 01:10:55;;;;;;;;;57.25;47.00;;;;;9.63;53.76;102196.13;4992560;28;45320;-82
2022/03/24 01:13:21;;;;;;;;;56.00;45.50;;;;;9.61;54.20;102189.91;5011221;28;45986;-81
2022/03/24 01:15:47;;;;;;;;;56.25;45.00;;;;;9.70;53.76;102198.31;5010525;28;45058;-81
2022/03/24 01:18:14;;;;;;;;;56.50;46.25;;;;;9.83;54.00;102228.06;4993624;28;45083;-83
2022/03/24 01:20:43;;;;;;;;;56.25;46.25;;;;;9.81;53.94;102232.31;5011179;28;45292;-82
2022/03/24 01:23:11;;;;;;;;;56.75;45.75;;;;;9.78;53.93;102233.84;4990489;28;45500;-82
2022/03/24 01:25:36;;;;;;;;;57.25;46.75;;;;;9.31;53.95;102142.59;5009433;28;45422;-82
2022/03/24 01:28:03;;;;;;;;;56.00;45.25;;;;;9.52;53.90;102182.38;5010655;28;45323;-82
2022/03/24 01:30:28;;;;;;;;;48.75;42.75;;;;;9.71;54.41;102224.69;5010967;28;45198;-82
2022/03/24 01:32:53;;;;;;;;;54.75;45.50;;;;;9.60;54.63;102206.44;5009879;28;46032;-82
2022/03/24 01:35:19;;;;;;;;;59.25;47.50;;;;;8.93;54.07;102092.97;5011019;28;45230;-82
2022/03/24 01:37:44;;;;;;;;;51.50;41.25;;;;;9.64;54.38;102225.09;5010196;28;45409;-82
2022/03/24 01:40:12;;;;;;;;;58.67;45.00;;;;;9.24;54.29;102149.16;5010724;28;45294;-82
2022/03/24 01:42:38;;;;;;;;;56.25;45.00;;;;;9.61;53.92;102217.06;5010037;28;46142;-82
2022/03/24 01:45:05;;;;;;;;;53.50;44.00;;;;;9.33;54.47;102174.16;5010007;28;45368;-81
2022/03/24 01:47:32;;;;;;;;;56.25;46.00;;;;;9.06;53.82;102124.38;5009751;28;45287;-83
2022/03/24 01:49:58;;;;;;;;;55.50;44.00;;;;;9.12;54.42;102137.00;5009978;28;45022;-82
2022/03/24 01:52:25;;;;;;;;;57.50;45.25;;;;;9.40;54.23;102182.47;5009799;28;46048;-82
2022/03/24 01:54:56;;;;;;;;;53.50;45.00;;;;;9.50;54.22;102202.34;5008093;28;45545;-82
2022/03/24 01:57:23;;;;;;;;;53.25;45.00;;;;;9.22;54.13;102161.28;5009721;28;45213;-82
2022/03/24 01:59:49;;;;;;;;;56.00;44.00;;;;;9.17;54.87;102152.22;5010271;28;45022;-83
2022/03/24 02:02:15;;;;;;;;;56.25;47.00;;;;;9.23;54.60;102160.47;4991821;28;47100;-82
2022/03/24 02:04:43;;;;;;;;;56.75;45.00;;;;;9.33;54.26;102184.66;5010171;28;45234;-82
2022/03/24 02:07:09;;;;;;;;;57.00;44.25;;;;;9.36;54.45;102212.00;5009788;28;45358;-82
2022/03/24 02:09:38;;;;;;;;;53.25;44.00;;;;;9.11;54.44;102169.25;5009338;28;45341;-82
2022/03/24 02:12:08;;;;;;;;;46.75;39.75;;;;;9.35;54.37;102207.53;5009854;28;45378;-82
2022/03/24 02:14:34;;;;;;;;;52.50;43.00;;;;;9.20;54.64;102173.38;5009841;28;45718;-82
2022/03/24 02:17:00;;;;;;;;;59.00;45.00;;;;;9.13;54.64;102159.78;5009693;28;45156;-82
2022/03/24 02:19:27;;;;;;;;;57.75;44.00;;;;;9.04;54.98;102147.00;5009889;28;45120;-81
2022/03/24 02:21:55;;;;;;;;;52.25;43.00;;;;;9.07;54.82;102160.31;5009172;28;46230;-82
2022/03/24 02:24:22;;;;;;;;;53.50;43.50;;;;;8.83;54.83;102122.94;5009099;28;45355;-82
2022/03/24 02:26:48;;;;;;;;;54.75;45.75;;;;;8.92;54.91;102152.38;5010094;28;45032;-82
2022/03/24 02:29:16;;;;;;;;;58.50;46.25;;;;;8.95;54.57;102164.75;5009910;28;45275;-81
2022/03/24 02:31:47;;;;;;;;;55.00;44.00;;;;;8.79;54.69;102137.56;5008736;28;45491;-82
2022/03/24 02:37:00;;;;;;;;;53.25;42.50;;;;;9.15;55.28;102205.38;5009586;28;45147;-82
2022/03/24 02:39:26;;;;;;;;;53.00;44.00;;;;;9.02;55.43;102186.25;5008826;28;45373;-82
2022/03/24 02:41:54;;;;;;;;;56.75;46.75;;;;;9.04;55.13;102196.81;4991762;28;47227;-82
2022/03/24 02:44:26;;;;;;;;;48.75;41.75;;;;;9.01;55.63;102201.88;5009561;28;45333;-81
2022/03/24 02:46:54;;;;;;;;;58.25;46.75;;;;;8.96;55.08;102198.94;5007949;28;45209;-82
2022/03/24 02:49:22;;;;;;;;;54.50;46.00;;;;;8.52;55.39;102130.53;5008938;28;45269;-81
2022/03/24 02:51:49;;;;;;;;;53.75;44.50;;;;;8.66;55.54;102155.94;5008788;28;45283;-82
2022/03/24 02:54:14;;;;;;;;;58.00;45.50;;;;;8.58;54.77;102141.44;5009609;28;45018;-82
2022/03/24 02:56:42;;;;;;;;;55.00;44.33;;;;;8.75;55.06;102176.59;5008940;28;45100;-82
2022/03/24 02:59:08;;;;;;;;;53.00;44.00;;;;;8.45;55.45;102115.25;5009330;28;45078;-81
2022/03/24 03:01:33;;;;;;;;;53.75;43.25;;;;;8.91;55.07;102202.97;5008634;28;46376;-82
2022/03/24 03:03:59;;;;;;;;;53.50;43.25;;;;;8.76;55.59;102173.16;5009415;28;45061;-81
2022/03/24 03:06:25;;;;;;;;;48.00;40.00;;;;;8.90;55.21;102202.91;5008960;28;45344;-82
2022/03/24 03:08:50;;;;;;;;;55.75;45.00;;;;;8.46;55.82;102146.78;5008755;28;45378;-83
2022/03/24 03:11:17;;;;;;;;;52.50;41.75;;;;;8.62;55.50;102168.72;5008823;28;45278;-83
2022/03/24 03:13:45;;;;;;;;;51.75;42.00;;;;;8.75;55.89;102203.72;5009173;28;46219;-82
2022/03/24 03:16:10;;;;;;;;;51.50;42.50;;;;;8.45;55.71;102165.03;5008811;28;45188;-82
2022/03/24 03:18:36;;;;;;;;;50.50;42.00;;;;;8.69;56.37;102208.56;5008719;28;45124;-82
2022/03/24 03:21:01;;;;;;;;;51.00;42.33;;;;;8.46;56.15;102166.81;5009004;28;46300;-82
2022/03/24 03:23:26;;;;;;;;;52.67;42.00;;;;;8.59;56.18;102200.91;5008138;28;45667;-82
2022/03/24 03:25:52;;;;;;;;;49.33;40.33;;;;;8.26;56.34;102141.91;5008948;28;45532;-82
2022/03/24 03:28:18;;;;;;;;;48.50;41.50;;;;;8.57;56.02;102209.44;5008988;28;45313;-82
2022/03/24 03:30:44;;;;;;;;;50.75;42.00;;;;;8.52;56.85;102203.91;5008579;28;46240;-82
2022/03/24 03:33:10;;;;;;;;;47.75;40.25;;;;;8.27;56.58;102164.66;5009137;28;45154;-82
2022/03/24 03:35:36;;;;;;;;;52.50;42.75;;;;;8.36;56.76;102181.03;4990837;28;45251;-81
2022/03/24 03:38:03;;;;;;;;;54.00;40.50;;;;;8.25;56.77;102169.81;5008157;28;45011;-83
2022/03/24 03:40:28;;;;;;;;;54.50;42.00;;;;;8.21;56.69;102170.41;5008122;28;45362;-82
2022/03/24 03:42:53;;;;;;;;;54.75;43.25;;;;;8.18;56.56;102172.84;5023951;28;45410;-82
2022/03/24 03:45:19;;;;;;;;;57.25;43.25;;;;;8.09;56.79;102146.03;5008538;28;45070;-81
2022/03/24 03:47:45;;;;;;;;;54.50;42.00;;;;;8.38;56.62;102207.34;5008690;28;45074;-82
2022/03/24 03:50:10;;;;;;;;;47.67;41.33;;;;;8.14;57.04;102162.97;4990743;28;47068;-81
2022/03/24 03:52:36;;;;;;;;;49.33;39.00;;;;;8.34;57.05;102197.44;5006031;28;45240;-81
2022/03/24 03:55:02;;;;;;;;;45.75;40.25;;;;;8.03;56.96;102163.97;4990424;28;45260;-81
2022/03/24 03:57:27;;;;;;;;;47.25;38.50;;;;;8.01;57.36;102141.97;5008503;28;45297;-82
2022/03/24 03:59:53;;;;;;;;;47.75;41.25;;;;;7.88;56.92;102140.28;4990108;28;46342;-82
2022/03/24 04:02:18;;;;;;;;;45.00;38.33;;;;;8.13;57.22;102184.72;5007753;28;45385;-82
2022/03/24 04:04:44;;;;;;;;;52.00;42.50;;;;;7.86;57.36;102136.63;5008256;28;45094;-83
2022/03/24 04:07:09;;;;;;;;;53.00;41.50;;;;;8.01;57.29;102178.63;5008218;28;45294;-82
2022/03/24 04:09:35;;;;;;;;;46.25;40.00;;;;;8.12;57.65;102195.06;5022218;28;47413;-81
2022/03/24 04:12:00;;;;;;;;;52.50;43.00;;;;;7.80;57.86;102140.53;4990061;28;45410;-81
2022/03/24 04:14:26;;;;;;;;;55.75;44.75;;;;;7.96;57.96;102172.19;5008101;28;45417;-81
2022/03/24 04:16:51;;;;;;;;;54.00;42.25;;;;;7.83;57.40;102146.91;4990537;28;45184;-81
2022/03/24 04:19:19;;;;;;;;;44.50;37.25;;;;;7.71;57.61;102131.25;5008083;28;45179;-81
2022/03/24 04:21:45;;;;;;;;;53.00;42.50;;;;;7.81;57.71;102138.03;5007594;28;45741;-81
2022/03/24 04:24:10;;;;;;;;;44.25;39.50;;;;;7.84;57.61;102147.81;4987226;28;45176;-81
2022/03/24 04:26:36;;;;;;;;;50.75;40.25;;;;;7.71;57.64;102128.63;4987949;28;45256;-82
2022/03/24 04:29:02;;;;;;;;;52.25;42.25;;;;;7.96;57.47;102177.41;4995977;28;45922;-82
2022/03/24 04:31:28;;;;;;;;;51.50;42.25;;;;;7.84;57.83;102159.19;4990188;28;45340;-81
2022/03/24 04:33:53;;;;;;;;;46.00;40.50;;;;;7.79;57.66;102151.81;5008404;28;45065;-82
2022/03/24 04:36:19;;;;;;;;;54.25;43.00;;;;;7.79;57.55;102149.22;5007457;28;45160;-81
2022/03/24 04:38:44;;;;;;;;;50.00;39.67;;;;;7.57;57.63;102115.41;5007459;28;46063;-81
2022/03/24 04:41:13;;;;;;;;;51.75;41.25;;;;;7.71;57.78;102140.81;5007830;28;45108;-81
2022/03/24 04:43:38;;;;;;;;;44.25;37.50;;;;;7.49;57.55;102105.34;5022475;28;45141;-81
2022/03/24 04:46:04;;;;;;;;;45.25;39.25;;;;;7.74;57.63;102152.41;4990443;28;45061;-82
2022/03/24 04:48:36;;;;;;;;;46.75;39.75;;;;;7.92;57.49;102178.91;4989572;28;47683;-82
2022/03/24 04:51:03;;;;;;;;;46.50;37.25;;;;;7.69;57.58;102140.72;5006084;28;45039;-81
2022/03/24 04:53:29;;;;;;;;;45.75;38.00;;;;;7.92;57.91;102188.47;5003230;28;45201;-81
2022/03/24 04:55:54;;;;;;;;;48.50;41.50;;;;;7.61;57.97;102141.00;5006093;28;45140;-82
2022/03/24 04:58:19;;;;;;;;;51.00;42.00;;;;;7.75;57.81;102163.78;4998488;28;46038;-83
2022/03/24 05:00:45;;;;;;;;;52.00;42.33;;;;;7.82;57.61;102167.72;5007300;28;45129;-81
2022/03/24 05:03:10;;;;;;;;;47.67;40.67;;;;;7.52;57.38;102115.09;4990025;28;45290;-82
2022/03/24 05:05:35;;;;;;;;;53.00;42.00;;;;;7.89;57.46;102189.19;5007486;28;45019;-82
2022/03/24 05:08:01;;;;;;;;;51.50;42.00;;;;;7.83;57.38;102166.91;5022086;28;46517;-82
2022/03/24 05:10:27;;;;;;;;;48.75;40.25;;;;;7.73;57.16;102153.22;5006442;28;45421;-82
2022/03/24 05:12:52;;;;;;;;;40.50;34.00;;;;;7.71;57.34;102148.66;5008273;28;45065;-82
2022/03/24 05:15:18;;;;;;;;;40.25;36.75;;;;;7.67;57.73;102147.53;4992931;28;45204;-82
2022/03/24 05:17:43;;;;;;;;;48.25;39.50;;;;;7.84;57.38;102174.88;5004950;28;45633;-82
2022/03/24 05:20:09;;;;;;;;;43.33;39.00;;;;;7.94;57.29;102193.03;5009685;28;45061;-82
2022/03/24 05:22:36;;;;;;;;;53.75;43.50;;;;;7.90;57.03;102188.38;5009869;28;45160;-82
2022/03/24 05:25:02;;;;;;;;;46.75;39.25;;;;;7.93;57.67;102191.22;5010245;28;45503;-82
2022/03/24 05:27:27;;;;;;;;;51.50;42.50;;;;;7.64;57.40;102138.59;5010845;28;45674;-82
2022/03/24 05:29:53;;;;;;;;;53.00;42.67;;;;;7.69;57.63;102159.03;5010106;28;45027;-81
2022/03/24 05:32:18;;;;;;;;;42.33;38.67;;;;;7.73;57.58;102166.31;5010366;28;45366;-81
2022/03/24 05:34:44;;;;;;;;;44.25;38.50;;;;;7.80;58.01;102187.66;5010432;28;45392;-82
2022/03/24 05:37:09;;;;;;;;;50.00;39.25;;;;;7.51;58.02;102149.91;5009550;28;46031;-82
2022/03/24 05:39:35;;;;;;;;;45.00;39.25;;;;;7.66;58.03;102179.75;5010057;28;45372;-81
2022/03/24 05:42:02;;;;;;;;;46.25;38.25;;;;;7.69;58.59;102206.16;5010371;28;45387;-81
2022/03/24 05:44:29;;;;;;;;;55.50;41.50;;;;;7.59;58.17;102188.00;5010264;28;45103;-81
2022/03/24 05:46:54;;;;;;;;;45.00;39.50;;;;;7.64;58.18;102201.41;5009664;28;45193;-82
2022/03/24 05:49:21;;;;;;;;;46.50;39.00;;;;;7.50;58.56;102174.25;4992194;28;45211;-81
2022/03/24 05:51:47;;;;;;;;;47.00;39.25;;;;;7.55;58.63;102182.44;4992207;28;45159;-81
2022/03/24 05:54:14;;;;;;;;;43.25;40.00;;;;;7.39;58.61;102154.28;5010387;28;45039;-82
2022/03/24 05:56:41;;;;;;;;;50.50;40.00;;;;;7.38;58.90;102160.31;5010238;28;46037;-83
2022/03/24 05:59:06;;;;;;;;;53.75;41.25;;;;;7.14;59.00;102113.38;5009843;28;45300;-81
2022/03/24 06:01:33;;;;;;;;;54.25;43.25;;;;;7.40;58.75;102177.03;5009995;28;45225;-81
2022/03/24 06:04:00;;;;;;;;;47.75;38.75;;;;;7.38;58.88;102178.63;5010610;28;45000;-81
2022/03/24 06:06:26;;;;;;;;;52.00;42.25;;;;;7.50;59.04;102208.28;5009370;28;45327;-82
2022/03/24 06:08:56;;;;;;;;;50.00;42.75;;;;;7.28;58.98;102176.16;5009137;28;45606;-82
2022/03/24 06:11:23;;;;;;;;;49.00;39.75;;;;;7.15;58.97;102154.38;5008964;28;45428;-82
2022/03/24 06:13:48;;;;;;;;;53.00;42.00;;;;;7.04;59.45;102134.41;5009856;28;45002;-81
2022/03/24 06:16:14;;;;;;;;;53.75;43.50;;;;;7.50;59.07;102210.88;5009946;28;45549;-81
2022/03/24 06:18:40;;;;;;;;;47.25;40.25;;;;;7.34;59.43;102171.34;5009843;28;45129;-82
2022/03/24 06:21:07;;;;;;;;;46.00;39.00;;;;;7.54;59.00;102206.75;5009767;28;45182;-82
2022/03/24 06:23:32;;;;;;;;;49.25;40.00;;;;;7.61;59.41;102198.56;5009272;28;45259;-82
2022/03/24 06:25:58;;;;;;;;;47.25;40.00;;;;;7.64;59.44;102210.16;5008759;28;45363;-81
2022/03/24 06:28:23;;;;;;;;;55.50;43.75;;;;;7.39;59.49;102165.66;5009823;28;45156;-81
2022/03/24 06:30:49;;;;;;;;;58.75;45.75;;;;;7.52;59.32;102180.50;5009406;28;45740;-82
2022/03/24 06:33:18;;;;;;;;;54.75;45.00;;;;;7.68;59.00;102201.69;5009909;28;45461;-81
2022/03/24 06:35:45;;;;;;;;;48.75;42.50;;;;;7.73;58.76;102210.78;5009293;28;45506;-82
2022/03/24 06:38:11;;;;;;;;;54.50;43.00;;;;;7.68;58.25;102192.94;5010023;28;45445;-81
2022/03/24 06:40:40;;;;;;;;;55.00;45.25;;;;;7.87;58.72;102211.72;4994885;28;45834;-81
2022/03/24 06:43:07;;;;;;;;;51.25;41.50;;;;;7.62;58.64;102158.50;5023906;28;45417;-81
2022/03/24 06:45:34;;;;;;;;;52.75;43.50;;;;;7.97;58.99;102216.78;5005023;28;45922;-82
2022/03/24 06:47:59;;;;;;;;;53.25;42.75;;;;;8.01;59.32;102220.53;5002371;28;45402;-81
2022/03/24 06:50:25;;;;;;;;;55.50;44.50;;;;;7.73;59.41;102153.22;5001080;28;45018;-82
2022/03/24 06:52:50;;;;;;;;;50.50;43.00;;;;;8.11;58.69;102220.34;4997786;28;45499;-82
2022/03/24 06:55:16;;;;;;;;;54.50;45.75;;;;;8.10;59.49;102207.16;4996144;28;45335;-82
2022/03/24 06:57:43;;;;;;;;;47.00;40.50;;;;;8.12;58.33;102192.44;4994764;28;45441;-82
2022/03/24 07:00:14;;;;;;;;;54.50;42.75;;;;;8.33;58.14;102217.50;4994940;28;45480;-82
2022/03/24 07:02:40;;;;;;;;;50.50;41.75;;;;;8.41;58.82;102216.28;4993354;28;46982;-84
2022/03/24 07:05:11;;;;;;;;;52.25;43.75;;;;;8.50;58.68;102223.88;4996306;28;46056;-81
2022/03/24 07:07:37;;;;;;;;;55.75;46.00;;;;;8.44;58.43;102202.50;4991151;28;46110;-81
2022/03/24 07:10:03;;;;;;;;;53.00;44.50;;;;;8.41;58.92;102181.34;4995357;28;45130;-82
2022/03/24 07:12:28;;;;;;;;;50.75;44.25;;;;;8.41;58.81;102174.38;4995183;28;45185;-82
2022/03/24 07:14:53;;;;;;;;;52.00;42.67;;;;;8.74;58.82;102225.50;4975074;28;46621;-82
2022/03/24 07:17:19;;;;;;;;;53.00;43.00;;;;;8.71;58.83;102195.53;4999434;28;45597;-82
2022/03/24 07:19:45;;;;;;;;;58.00;45.00;;;;;8.50;58.91;102143.56;4996060;28;45121;-82
2022/03/24 07:22:10;;;;;;;;;53.75;44.50;;;;;8.81;58.79;102186.56;4991426;28;45846;-81
2022/03/24 07:24:36;;;;;;;;;56.75;46.50;;;;;8.81;58.44;102168.22;5007012;28;46205;-81
2022/03/24 07:27:02;;;;;;;;;57.50;47.50;;;;;8.75;58.84;102146.03;5003911;28;45090;-82
2022/03/24 07:29:27;;;;;;;;;51.75;39.75;;;;;9.07;58.53;102186.53;4982518;28;45143;-82
2022/03/24 07:31:53;;;;;;;;;57.50;47.50;;;;;8.93;58.43;102150.66;5003541;28;45106;-81
2022/03/24 07:34:18;;;;;;;;;58.00;46.00;;;;;8.98;57.88;102138.75;4995055;28;45168;-81
2022/03/24 07:36:44;;;;;;;;;55.75;45.50;;;;;9.00;57.90;102124.91;4995589;28;45212;-82
2022/03/24 07:39:11;;;;;;;;;54.50;45.00;;;;;9.65;57.61;102212.88;5000615;28;45249;-81
2022/03/24 07:41:37;;;;;;;;;60.00;48.00;;;;;9.49;57.42;102175.19;5006790;28;45097;-81
2022/03/24 07:44:03;;;;;;;;;62.75;49.00;;;;;9.83;58.09;102216.66;4996095;28;45923;-81
2022/03/24 07:46:28;;;;;;;;;60.50;49.50;;;;;9.92;57.71;102224.19;5003131;28;45216;-81
2022/03/24 07:48:54;;;;;;;;;62.25;49.50;;;;;9.92;58.48;102204.06;5008527;28;45535;-81
2022/03/24 07:51:20;;;;;;;;;63.25;49.25;;;;;9.79;57.79;102178.78;5008320;28;45718;-81
2022/03/24 07:53:48;;;;;;;;;62.50;49.75;;;;;10.18;58.23;102224.03;5008210;28;45907;-81
2022/03/24 07:56:14;;;;;;;;;60.25;49.00;;;;;9.96;57.38;102171.03;5004276;28;45102;-81
2022/03/24 07:58:40;;;;;;;;;61.00;50.25;;;;;10.32;56.99;102214.38;5002074;28;45054;-82
2022/03/24 08:01:06;;;;;;;;;63.50;51.00;;;;;10.33;56.76;102203.94;5005860;28;45282;-81
2022/03/24 08:03:32;;;;;;;;;54.25;44.25;;;;;10.44;55.29;102204.59;4997266;28;45729;-80
2022/03/24 08:05:58;;;;;;;;;52.00;43.50;;;;;10.21;55.38;102142.78;4988456;28;45321;-82
2022/03/24 08:08:24;;;;;;;;;56.25;43.75;;;;;10.76;54.98;102219.59;4989285;28;45212;-81
2022/03/24 08:10:50;;;;;;;;;56.75;45.50;;;;;10.76;54.51;102209.06;5009949;28;45316;-81
2022/03/24 08:13:18;;;;;;;;;56.75;46.50;;;;;11.04;53.91;102235.22;5000400;28;45810;-81
2022/03/24 08:15:45;;;;;;;;;50.25;41.00;;;;;11.03;53.63;102217.63;4989594;28;45250;-81
2022/03/24 08:18:11;;;;;;;;;58.50;46.50;;;;;11.09;52.80;102219.69;5009050;28;45282;-81
2022/03/24 08:20:38;;;;;;;;;53.25;44.50;;;;;10.69;52.71;102124.47;5002806;28;45478;-81
2022/03/24 08:23:05;;;;;;;;;57.00;45.75;;;;;11.38;52.42;102231.84;5006636;28;46198;-81
2022/03/24 08:25:31;;;;;;;;;54.50;44.00;;;;;11.02;52.28;102167.53;5003619;28;45641;-81
2022/03/24 08:27:57;;;;;;;;;55.50;45.00;;;;;10.67;52.09;102082.31;5007910;28;45063;-81
2022/03/24 08:30:23;;;;;;;;;54.50;45.00;;;;;10.93;51.61;102127.56;5007885;28;45006;-81
2022/03/24 08:32:48;;;;;;;;;56.50;44.50;;;;;11.66;51.49;102241.22;5001044;28;45596;-81
2022/03/24 08:35:14;;;;;;;;;53.00;43.00;;;;;11.54;50.87;102197.63;4995245;28;45489;-81
2022/03/24 08:37:40;;;;;;;;;48.00;37.75;;;;;11.31;51.84;102154.25;4995071;28;45145;-81
2022/03/24 08:40:06;;;;;;;;;48.50;38.75;;;;;11.71;49.92;102203.78;4990348;28;45204;-80
2022/03/24 08:42:31;;;;;;;;;45.00;37.75;;;;;11.75;49.63;102204.84;4998361;28;45576;-81
2022/03/24 08:44:57;;;;;;;;;44.75;37.75;;;;;11.84;50.00;102206.28;4988277;28;45212;-81
2022/03/24 08:47:23;;;;;;;;;48.33;40.00;;;;;11.56;49.07;102151.19;5003615;28;45270;-81
2022/03/24 08:49:52;;;;;;;;;55.75;44.50;;;;;11.71;49.19;102163.38;4996542;28;45168;-81
2022/03/24 08:52:18;;;;;;;;;53.00;43.50;;;;;11.40;48.37;102106.47;5002245;28;45599;-81
2022/03/24 08:54:43;;;;;;;;;46.00;39.33;;;;;12.09;48.44;102213.75;5001852;28;45249;-81
2022/03/24 08:57:08;;;;;;;;;49.67;41.00;;;;;12.04;48.50;102191.50;5006575;28;45184;-88
2022/03/24 08:59:35;;;;;;;;;50.00;39.00;;;;;12.27;47.79;102226.97;5020918;28;45054;-87
2022/03/24 09:02:00;;;;;;;;;52.00;42.50;;;;;12.00;47.86;102172.84;4993377;28;48030;-86
2022/03/24 09:04:26;;;;;;;;;46.50;40.25;;;;;11.74;47.11;102119.66;5011159;28;45129;-88
2022/03/24 09:06:52;;;;;;;;;51.50;41.00;;;;;12.35;47.24;102214.16;4986593;28;45272;-83
2022/03/24 09:09:22;;;;;;;;;50.00;40.25;;;;;12.43;46.94;102220.75;4996450;28;47219;-81
2022/03/24 09:11:47;;;;;;;;;46.25;39.50;;;;;12.50;48.45;102216.66;5010001;28;46328;-81
2022/03/24 09:14:13;;;;;;;;;44.50;38.25;;;;;12.48;47.90;102205.16;4988306;28;46130;-82
2022/03/24 09:16:38;;;;;;;;;54.25;42.25;;;;;12.56;47.37;102222.25;5025526;28;45954;-82
2022/03/24 09:19:04;;;;;;;;;47.00;39.75;;;;;12.71;46.70;102241.50;5000715;28;45426;-81
2022/03/24 09:21:29;;;;;;;;;45.75;37.50;;;;;12.77;46.29;102230.34;5000842;28;45466;-81
2022/03/24 09:23:54;;;;;;;;;46.75;38.00;;;;;12.92;46.69;102244.28;5001655;28;44998;-82
2022/03/24 09:26:20;;;;;;;;;54.33;43.00;;;;;12.63;47.35;102185.72;4990867;28;45303;-82
2022/03/24 09:28:51;;;;;;;;;47.75;38.25;;;;;12.83;46.46;102212.19;4991804;28;45191;-81
2022/03/24 09:31:16;;;;;;;;;43.75;37.00;;;;;13.01;46.05;102231.56;4995588;28;45490;-82
2022/03/24 09:33:41;;;;;;;;;45.33;38.00;;;;;12.76;45.94;102174.03;5002096;28;45086;-81
2022/03/24 09:36:07;;;;;;;;;46.00;38.67;;;;;12.94;46.13;102188.94;4991564;28;45123;-80
2022/03/24 09:38:32;;;;;;;;;50.67;42.00;;;;;12.97;45.57;102181.19;5002752;28;45096;-81
2022/03/24 09:40:58;;;;;;;;;47.25;40.25;;;;;13.30;45.08;102230.34;4996054;28;45222;-81
2022/03/24 09:43:26;;;;;;;;;50.00;39.75;;;;;13.34;45.00;102231.38;4998916;28;45272;-81
2022/03/24 09:45:52;;;;;;;;;47.50;38.75;;;;;13.30;44.31;102201.28;4999829;28;45346;-81
2022/03/24 09:48:18;;;;;;;;;43.00;37.75;;;;;13.32;44.36;102191.69;4985459;28;45134;-81
2022/03/24 09:50:47;;;;;;;;;48.50;40.00;;;;;13.61;44.25;102232.66;4988858;28;45947;-81
2022/03/24 09:53:13;;;;;;;;;51.00;40.25;;;;;13.50;44.21;102201.31;4980806;28;45771;-82
2022/03/24 09:55:40;;;;;;;;;52.25;41.00;;;;;13.73;44.34;102234.94;4991296;28;45771;-81
2022/03/24 09:58:09;;;;;;;;;52.75;42.25;;;;;13.65;43.90;102195.00;4988284;28;45631;-81
2022/03/24 10:00:35;;;;;;;;;46.50;38.00;;;;;13.93;44.44;102231.47;4986065;28;46252;-81
2022/03/24 10:03:07;;;;;;;;;46.25;38.25;;;;;14.02;44.13;102232.72;4984788;28;45506;-81
2022/03/24 10:05:33;;;;;;;;;51.50;41.75;;;;;13.86;43.51;102188.84;4985340;28;45816;-80
2022/03/24 10:08:05;;;;;;;;;44.25;37.00;;;;;14.00;43.48;102208.88;4964120;28;45539;-81
2022/03/24 10:10:34;;;;;;;;;49.75;39.75;;;;;14.26;43.81;102230.25;4981541;28;46054;-81
2022/03/24 10:13:00;;;;;;;;;48.50;39.00;;;;;14.21;43.58;102200.97;4981825;28;45664;-81
2022/03/24 10:15:25;;;;;;;;;48.25;39.50;;;;;14.41;43.70;102218.56;4970356;28;45399;-81
2022/03/24 10:17:53;;;;;;;;;50.50;41.00;;;;;14.36;43.29;102192.78;4969778;28;45592;-81
2022/03/24 10:20:20;;;;;;;;;52.00;41.00;;;;;14.55;43.60;102205.97;4970561;28;45452;-80
2022/03/24 10:23:00;;;;;;;;;50.50;40.75;;;;;14.47;43.28;102178.25;4972405;28;45650;-81
2022/03/24 10:25:33;;;;;;;;;51.75;41.50;;;;;14.53;42.70;102167.97;4980493;28;45781;-82
2022/03/24 10:28:05;;;;;;;;;49.75;40.50;;;;;14.93;42.52;102220.78;4981240;28;44955;-80
2022/03/24 10:30:46;;;;;;;;;48.75;40.00;;;;;15.00;42.71;102213.09;5011126;28;46373;-79
2022/03/24 10:33:35;;;;;;;;;48.00;38.25;;;;;14.84;42.53;102178.06;5002726;28;45128;-80
2022/03/24 10:36:17;;;;;;;;;52.00;40.75;;;;;15.13;42.32;102211.00;4999225;28;45458;-80
2022/03/24 10:38:48;;;;;;;;;51.00;40.75;;;;;15.09;42.40;102193.16;5009681;28;45187;-81
2022/03/24 10:41:22;;;;;;;;;47.00;39.00;;;;;15.23;42.45;102199.00;5013159;28;45525;-81
2022/03/24 10:43:50;;;;;;;;;43.00;37.00;;;;;15.07;42.00;102155.13;5019811;28;45179;-81
2022/03/24 10:46:29;;;;;;;;;47.75;40.00;;;;;15.47;42.30;102210.56;4998879;28;45199;-81
2022/03/24 10:48:56;;;;;;;;;48.50;39.75;;;;;15.58;42.65;102215.34;5009659;28;45172;-81
2022/03/24 10:51:25;;;;;;;;;52.00;42.25;;;;;15.55;42.25;102181.66;5006984;28;45474;-80
2022/03/24 10:53:53;;;;;;;;;46.75;39.75;;;;;15.68;41.49;102191.03;5008819;28;45588;-81
2022/03/24 10:56:33;;;;;;;;;47.50;37.75;;;;;15.78;41.67;102201.13;5008742;28;45069;-81
2022/03/24 10:59:03;;;;;;;;;45.00;37.50;;;;;15.89;41.16;102206.81;5002123;28;45422;-80
2022/03/24 11:01:31;;;;;;;;;46.50;38.75;;;;;15.99;41.09;102207.19;5001032;28;45522;-81
2022/03/24 11:03:56;;;;;;;;;52.75;43.00;;;;;16.09;40.39;102200.47;4999867;28;45695;-80
2022/03/24 11:06:27;;;;;;;;;49.00;40.25;;;;;16.16;40.51;102205.16;5009549;28;45097;-81
2022/03/24 11:08:54;;;;;;;;;49.25;38.00;;;;;16.24;40.31;102208.06;4990166;28;45261;-80
2022/03/24 11:11:21;;;;;;;;;49.25;39.75;;;;;16.32;40.60;102206.56;4988794;28;46708;-80
2022/03/24 11:14:02;;;;;;;;;48.25;40.25;;;;;16.45;39.92;102205.22;5000672;28;45633;-81